sensor_id;sensor_type;location;lat;lon;timestamp;P1;durP1;ratioP1;P2;durP2;ratioP2
24567;SDS011;12731;52.182;8.716;2023-02-23T00:01:19;36.17;;;25.70;;
24567;SDS011;12731;52.182;8.716;2023-02-23T00:03:50;35.38;;;26.88;;
24567;SDS011;12731;52.182;8.716;2023-02-23T00:06:20;35.58;;;26.58;;
24567;SDS011;12731;52.182;8.716;2023-02-23T00:08:46;37.83;;;25.90;;
24567;SDS011;12731;52.182;8.716;2023-02-23T00:11:17;34.08;;;25.23;;
24567;SDS011;12731;52.182;8.716;2023-02-23T00:13:45;33.97;;;25.38;;
24567;SDS011;12731;52.182;8.716;2023-02-23T00:16:15;39.70;;;26.83;;
24567;SDS011;12731;52.182;8.716;2023-02-23T00:18:44;39.42;;;27.92;;
24567;SDS011;12731;52.182;8.716;2023-02-23T00:23:53;38.50;;;26.80;;
24567;SDS011;12731;52.182;8.716;2023-02-23T00:26:23;39.83;;;28.70;;
24567;SDS011;12731;52.182;8.716;2023-02-23T00:28:53;39.08;;;29.00;;
24567;SDS011;12731;52.182;8.716;2023-02-23T00:31:20;42.53;;;29.30;;
24567;SDS011;12731;52.182;8.716;2023-02-23T00:33:51;41.10;;;29.75;;
24567;SDS011;12731;52.182;8.716;2023-02-23T00:36:20;42.22;;;30.88;;
24567;SDS011;12731;52.182;8.716;2023-02-23T00:38:51;42.78;;;30.02;;
24567;SDS011;12731;52.182;8.716;2023-02-23T00:41:19;45.53;;;30.58;;
24567;SDS011;12731;52.182;8.716;2023-02-23T00:43:48;43.40;;;31.35;;
24567;SDS011;12731;52.182;8.716;2023-02-23T00:46:16;46.22;;;30.60;;
24567;SDS011;12731;52.182;8.716;2023-02-23T00:48:43;45.13;;;31.90;;
24567;SDS011;12731;52.182;8.716;2023-02-23T00:51:11;44.92;;;33.95;;
24567;SDS011;12731;52.182;8.716;2023-02-23T00:53:37;48.17;;;35.22;;
24567;SDS011;12731;52.182;8.716;2023-02-23T00:56:04;48.53;;;35.50;;
24567;SDS011;12731;52.182;8.716;2023-02-23T00:58:31;48.90;;;34.40;;
24567;SDS011;12731;52.182;8.716;2023-02-23T01:00:58;47.13;;;33.63;;
24567;SDS011;12731;52.182;8.716;2023-02-23T01:03:25;47.63;;;33.45;;
24567;SDS011;12731;52.182;8.716;2023-02-23T01:05:52;46.60;;;34.65;;
24567;SDS011;12731;52.182;8.716;2023-02-23T01:08:20;53.85;;;36.85;;
24567;SDS011;12731;52.182;8.716;2023-02-23T01:10:49;50.75;;;38.15;;
24567;SDS011;12731;52.182;8.716;2023-02-23T01:13:19;54.47;;;37.33;;
24567;SDS011;12731;52.182;8.716;2023-02-23T01:15:46;53.53;;;36.88;;
24567;SDS011;12731;52.182;8.716;2023-02-23T01:18:15;52.97;;;37.35;;
24567;SDS011;12731;52.182;8.716;2023-02-23T01:20:43;54.42;;;39.28;;
24567;SDS011;12731;52.182;8.716;2023-02-23T01:23:10;53.95;;;38.08;;
24567;SDS011;12731;52.182;8.716;2023-02-23T01:25:38;53.75;;;36.63;;
24567;SDS011;12731;52.182;8.716;2023-02-23T01:28:06;48.95;;;37.08;;
24567;SDS011;12731;52.182;8.716;2023-02-23T01:30:34;55.88;;;38.00;;
24567;SDS011;12731;52.182;8.716;2023-02-23T01:33:00;54.58;;;40.78;;
24567;SDS011;12731;52.182;8.716;2023-02-23T01:35:27;59.33;;;41.63;;
24567;SDS011;12731;52.182;8.716;2023-02-23T01:37:54;56.85;;;42.50;;
24567;SDS011;12731;52.182;8.716;2023-02-23T01:40:22;62.55;;;44.00;;
24567;SDS011;12731;52.182;8.716;2023-02-23T01:42:55;63.30;;;43.97;;
24567;SDS011;12731;52.182;8.716;2023-02-23T01:45:32;65.35;;;44.80;;
24567;SDS011;12731;52.182;8.716;2023-02-23T01:48:21;64.32;;;45.00;;
24567;SDS011;12731;52.182;8.716;2023-02-23T01:51:09;63.08;;;46.08;;
24567;SDS011;12731;52.182;8.716;2023-02-23T01:53:38;62.17;;;44.47;;
24567;SDS011;12731;52.182;8.716;2023-02-23T01:56:12;64.38;;;46.90;;
24567;SDS011;12731;52.182;8.716;2023-02-23T01:58:43;66.22;;;47.22;;
24567;SDS011;12731;52.182;8.716;2023-02-23T02:01:11;66.75;;;47.72;;
24567;SDS011;12731;52.182;8.716;2023-02-23T02:03:38;64.30;;;46.47;;
24567;SDS011;12731;52.182;8.716;2023-02-23T02:06:07;68.18;;;46.30;;
24567;SDS011;12731;52.182;8.716;2023-02-23T02:08:35;63.42;;;45.97;;
24567;SDS011;12731;52.182;8.716;2023-02-23T02:11:11;63.97;;;46.95;;
24567;SDS011;12731;52.182;8.716;2023-02-23T02:13:55;64.97;;;46.22;;
24567;SDS011;12731;52.182;8.716;2023-02-23T02:22:03;72.75;;;50.42;;
24567;SDS011;12731;52.182;8.716;2023-02-23T02:25:42;69.28;;;48.65;;
24567;SDS011;12731;52.182;8.716;2023-02-23T02:39:27;66.95;;;47.20;;
24567;SDS011;12731;52.182;8.716;2023-02-23T02:42:10;63.67;;;46.38;;
24567;SDS011;12731;52.182;8.716;2023-02-23T02:44:55;65.78;;;45.53;;
24567;SDS011;12731;52.182;8.716;2023-02-23T02:47:33;71.10;;;48.33;;
24567;SDS011;12731;52.182;8.716;2023-02-23T02:50:14;67.03;;;47.03;;
24567;SDS011;12731;52.182;8.716;2023-02-23T02:52:50;75.88;;;50.40;;
24567;SDS011;12731;52.182;8.716;2023-02-23T02:55:24;71.80;;;49.28;;
24567;SDS011;12731;52.182;8.716;2023-02-23T02:57:52;75.22;;;51.35;;
24567;SDS011;12731;52.182;8.716;2023-02-23T03:00:30;73.28;;;51.22;;
24567;SDS011;12731;52.182;8.716;2023-02-23T03:06:26;77.25;;;52.30;;
24567;SDS011;12731;52.182;8.716;2023-02-23T03:09:24;78.75;;;52.85;;
24567;SDS011;12731;52.182;8.716;2023-02-23T03:15:32;80.25;;;50.85;;
24567;SDS011;12731;52.182;8.716;2023-02-23T03:21:28;76.40;;;52.25;;
24567;SDS011;12731;52.182;8.716;2023-02-23T03:25:01;80.68;;;54.25;;
24567;SDS011;12731;52.182;8.716;2023-02-23T03:27:35;81.53;;;54.78;;
24567;SDS011;12731;52.182;8.716;2023-02-23T03:33:29;85.75;;;56.80;;
24567;SDS011;12731;52.182;8.716;2023-02-23T03:36:24;82.18;;;54.60;;
24567;SDS011;12731;52.182;8.716;2023-02-23T03:39:18;84.88;;;54.45;;
24567;SDS011;12731;52.182;8.716;2023-02-23T03:42:10;82.88;;;53.72;;
24567;SDS011;12731;52.182;8.716;2023-02-23T03:44:57;86.20;;;56.70;;
24567;SDS011;12731;52.182;8.716;2023-02-23T03:47:43;84.05;;;54.83;;
24567;SDS011;12731;52.182;8.716;2023-02-23T03:50:33;87.22;;;56.38;;
24567;SDS011;12731;52.182;8.716;2023-02-23T03:53:30;82.63;;;53.83;;
24567;SDS011;12731;52.182;8.716;2023-02-23T03:56:19;83.43;;;56.45;;
24567;SDS011;12731;52.182;8.716;2023-02-23T03:59:07;83.15;;;54.50;;
24567;SDS011;12731;52.182;8.716;2023-02-23T04:01:53;86.03;;;55.08;;
24567;SDS011;12731;52.182;8.716;2023-02-23T04:04:39;90.57;;;58.13;;
24567;SDS011;12731;52.182;8.716;2023-02-23T04:07:25;87.60;;;57.45;;
24567;SDS011;12731;52.182;8.716;2023-02-23T04:10:10;93.78;;;58.88;;
24567;SDS011;12731;52.182;8.716;2023-02-23T04:15:52;85.90;;;56.45;;
24567;SDS011;12731;52.182;8.716;2023-02-23T04:18:22;92.40;;;57.55;;
24567;SDS011;12731;52.182;8.716;2023-02-23T04:20:50;92.22;;;59.65;;
24567;SDS011;12731;52.182;8.716;2023-02-23T04:23:16;94.07;;;61.20;;
24567;SDS011;12731;52.182;8.716;2023-02-23T04:25:43;94.65;;;59.05;;
24567;SDS011;12731;52.182;8.716;2023-02-23T04:28:09;96.10;;;60.58;;
24567;SDS011;12731;52.182;8.716;2023-02-23T04:30:36;93.88;;;62.05;;
24567;SDS011;12731;52.182;8.716;2023-02-23T04:33:02;101.70;;;61.60;;
24567;SDS011;12731;52.182;8.716;2023-02-23T04:35:29;92.47;;;59.00;;
24567;SDS011;12731;52.182;8.716;2023-02-23T04:37:56;95.72;;;60.90;;
24567;SDS011;12731;52.182;8.716;2023-02-23T04:40:23;94.18;;;60.70;;
24567;SDS011;12731;52.182;8.716;2023-02-23T04:42:50;97.60;;;60.35;;
24567;SDS011;12731;52.182;8.716;2023-02-23T04:45:16;99.57;;;62.55;;
24567;SDS011;12731;52.182;8.716;2023-02-23T04:47:43;101.60;;;62.03;;
24567;SDS011;12731;52.182;8.716;2023-02-23T04:50:10;103.10;;;63.47;;
24567;SDS011;12731;52.182;8.716;2023-02-23T04:52:37;98.85;;;61.47;;
24567;SDS011;12731;52.182;8.716;2023-02-23T04:55:04;97.70;;;60.63;;
24567;SDS011;12731;52.182;8.716;2023-02-23T04:57:32;101.47;;;63.80;;
24567;SDS011;12731;52.182;8.716;2023-02-23T04:59:59;103.53;;;63.28;;
24567;SDS011;12731;52.182;8.716;2023-02-23T05:02:25;99.70;;;61.65;;
24567;SDS011;12731;52.182;8.716;2023-02-23T05:04:52;100.68;;;62.72;;
24567;SDS011;12731;52.182;8.716;2023-02-23T05:07:18;101.35;;;62.55;;
24567;SDS011;12731;52.182;8.716;2023-02-23T05:09:45;104.53;;;64.22;;
24567;SDS011;12731;52.182;8.716;2023-02-23T05:12:11;103.07;;;63.33;;
24567;SDS011;12731;52.182;8.716;2023-02-23T05:14:37;111.40;;;66.93;;
24567;SDS011;12731;52.182;8.716;2023-02-23T05:17:04;106.13;;;63.28;;
24567;SDS011;12731;52.182;8.716;2023-02-23T05:19:33;111.03;;;65.43;;
24567;SDS011;12731;52.182;8.716;2023-02-23T05:22:00;107.13;;;66.20;;
24567;SDS011;12731;52.182;8.716;2023-02-23T05:24:27;102.50;;;63.63;;
24567;SDS011;12731;52.182;8.716;2023-02-23T05:26:53;108.60;;;65.43;;
24567;SDS011;12731;52.182;8.716;2023-02-23T05:29:19;106.35;;;65.55;;
24567;SDS011;12731;52.182;8.716;2023-02-23T05:31:46;108.47;;;65.90;;
24567;SDS011;12731;52.182;8.716;2023-02-23T05:34:13;106.07;;;66.70;;
24567;SDS011;12731;52.182;8.716;2023-02-23T05:36:43;112.97;;;67.85;;
24567;SDS011;12731;52.182;8.716;2023-02-23T05:39:09;124.03;;;71.03;;
24567;SDS011;12731;52.182;8.716;2023-02-23T05:41:35;131.35;;;75.22;;
24567;SDS011;12731;52.182;8.716;2023-02-23T05:44:02;137.80;;;77.55;;
24567;SDS011;12731;52.182;8.716;2023-02-23T05:46:28;143.98;;;79.55;;
24567;SDS011;12731;52.182;8.716;2023-02-23T05:48:56;143.77;;;79.20;;
24567;SDS011;12731;52.182;8.716;2023-02-23T05:51:24;141.93;;;78.80;;
24567;SDS011;12731;52.182;8.716;2023-02-23T05:53:51;136.70;;;77.60;;
24567;SDS011;12731;52.182;8.716;2023-02-23T05:56:19;125.72;;;72.68;;
24567;SDS011;12731;52.182;8.716;2023-02-23T05:58:50;120.07;;;71.95;;
24567;SDS011;12731;52.182;8.716;2023-02-23T06:01:18;118.53;;;70.55;;
24567;SDS011;12731;52.182;8.716;2023-02-23T06:03:46;132.30;;;76.47;;
24567;SDS011;12731;52.182;8.716;2023-02-23T06:06:12;129.50;;;74.72;;
24567;SDS011;12731;52.182;8.716;2023-02-23T06:08:39;126.90;;;75.43;;
24567;SDS011;12731;52.182;8.716;2023-02-23T06:11:06;132.05;;;77.65;;
24567;SDS011;12731;52.182;8.716;2023-02-23T06:13:32;134.02;;;79.55;;
24567;SDS011;12731;52.182;8.716;2023-02-23T06:15:59;130.80;;;80.60;;
24567;SDS011;12731;52.182;8.716;2023-02-23T06:18:26;132.93;;;80.10;;
24567;SDS011;12731;52.182;8.716;2023-02-23T06:20:53;131.23;;;78.53;;
24567;SDS011;12731;52.182;8.716;2023-02-23T06:23:19;133.38;;;77.68;;
24567;SDS011;12731;52.182;8.716;2023-02-23T06:25:46;126.20;;;76.13;;
24567;SDS011;12731;52.182;8.716;2023-02-23T06:28:12;126.93;;;75.45;;
24567;SDS011;12731;52.182;8.716;2023-02-23T06:30:39;132.13;;;76.65;;
24567;SDS011;12731;52.182;8.716;2023-02-23T06:33:06;129.88;;;76.13;;
24567;SDS011;12731;52.182;8.716;2023-02-23T06:35:33;128.23;;;73.68;;
24567;SDS011;12731;52.182;8.716;2023-02-23T06:38:00;132.75;;;76.80;;
24567;SDS011;12731;52.182;8.716;2023-02-23T06:40:26;135.02;;;76.55;;
24567;SDS011;12731;52.182;8.716;2023-02-23T06:42:53;131.10;;;75.47;;
24567;SDS011;12731;52.182;8.716;2023-02-23T06:45:20;131.82;;;76.93;;
24567;SDS011;12731;52.182;8.716;2023-02-23T06:47:46;131.85;;;75.45;;
24567;SDS011;12731;52.182;8.716;2023-02-23T06:50:13;129.85;;;74.45;;
24567;SDS011;12731;52.182;8.716;2023-02-23T06:52:40;130.25;;;76.22;;
24567;SDS011;12731;52.182;8.716;2023-02-23T06:55:07;131.25;;;77.75;;
24567;SDS011;12731;52.182;8.716;2023-02-23T06:57:35;128.43;;;78.03;;
24567;SDS011;12731;52.182;8.716;2023-02-23T07:00:01;122.18;;;74.82;;
24567;SDS011;12731;52.182;8.716;2023-02-23T07:02:28;134.88;;;76.80;;
24567;SDS011;12731;52.182;8.716;2023-02-23T07:04:55;137.48;;;78.93;;
24567;SDS011;12731;52.182;8.716;2023-02-23T07:07:21;128.98;;;76.00;;
24567;SDS011;12731;52.182;8.716;2023-02-23T07:09:48;136.25;;;77.65;;
24567;SDS011;12731;52.182;8.716;2023-02-23T07:12:15;134.27;;;77.00;;
24567;SDS011;12731;52.182;8.716;2023-02-23T07:14:41;138.63;;;78.35;;
24567;SDS011;12731;52.182;8.716;2023-02-23T07:17:08;133.57;;;78.05;;
24567;SDS011;12731;52.182;8.716;2023-02-23T07:19:37;138.52;;;75.93;;
24567;SDS011;12731;52.182;8.716;2023-02-23T07:22:04;131.02;;;77.38;;
24567;SDS011;12731;52.182;8.716;2023-02-23T07:24:30;139.05;;;77.25;;
24567;SDS011;12731;52.182;8.716;2023-02-23T07:26:57;136.57;;;79.18;;
24567;SDS011;12731;52.182;8.716;2023-02-23T07:29:23;134.10;;;78.35;;
24567;SDS011;12731;52.182;8.716;2023-02-23T07:31:50;132.93;;;76.47;;
24567;SDS011;12731;52.182;8.716;2023-02-23T07:34:16;136.77;;;79.18;;
24567;SDS011;12731;52.182;8.716;2023-02-23T07:36:43;130.02;;;78.30;;
24567;SDS011;12731;52.182;8.716;2023-02-23T07:39:09;140.30;;;80.30;;
24567;SDS011;12731;52.182;8.716;2023-02-23T07:41:35;131.45;;;75.65;;
24567;SDS011;12731;52.182;8.716;2023-02-23T07:44:02;132.18;;;78.63;;
24567;SDS011;12731;52.182;8.716;2023-02-23T07:46:28;140.10;;;80.80;;
24567;SDS011;12731;52.182;8.716;2023-02-23T07:48:55;137.38;;;79.03;;
24567;SDS011;12731;52.182;8.716;2023-02-23T07:51:21;139.23;;;81.43;;
24567;SDS011;12731;52.182;8.716;2023-02-23T07:53:51;137.77;;;78.90;;
24567;SDS011;12731;52.182;8.716;2023-02-23T07:56:17;139.68;;;80.18;;
24567;SDS011;12731;52.182;8.716;2023-02-23T07:58:44;135.30;;;78.75;;
24567;SDS011;12731;52.182;8.716;2023-02-23T08:01:10;130.25;;;77.20;;
24567;SDS011;12731;52.182;8.716;2023-02-23T08:03:37;135.57;;;79.25;;
24567;SDS011;12731;52.182;8.716;2023-02-23T08:06:04;135.98;;;78.95;;
24567;SDS011;12731;52.182;8.716;2023-02-23T08:08:31;132.65;;;80.95;;
24567;SDS011;12731;52.182;8.716;2023-02-23T08:10:59;129.35;;;77.25;;
24567;SDS011;12731;52.182;8.716;2023-02-23T08:13:27;128.30;;;76.25;;
24567;SDS011;12731;52.182;8.716;2023-02-23T08:15:56;136.82;;;81.55;;
24567;SDS011;12731;52.182;8.716;2023-02-23T08:18:22;124.47;;;75.70;;
24567;SDS011;12731;52.182;8.716;2023-02-23T08:20:49;124.95;;;75.82;;
24567;SDS011;12731;52.182;8.716;2023-02-23T08:23:15;137.02;;;78.32;;
24567;SDS011;12731;52.182;8.716;2023-02-23T08:25:43;126.65;;;76.45;;
24567;SDS011;12731;52.182;8.716;2023-02-23T08:28:09;126.22;;;76.50;;
24567;SDS011;12731;52.182;8.716;2023-02-23T08:30:36;128.32;;;76.22;;
24567;SDS011;12731;52.182;8.716;2023-02-23T08:33:02;123.05;;;75.45;;
24567;SDS011;12731;52.182;8.716;2023-02-23T08:35:30;122.93;;;75.22;;
24567;SDS011;12731;52.182;8.716;2023-02-23T08:37:57;129.52;;;77.38;;
24567;SDS011;12731;52.182;8.716;2023-02-23T08:40:24;127.85;;;73.82;;
24567;SDS011;12731;52.182;8.716;2023-02-23T08:42:50;123.95;;;74.13;;
24567;SDS011;12731;52.182;8.716;2023-02-23T08:45:17;132.23;;;76.07;;
24567;SDS011;12731;52.182;8.716;2023-02-23T08:47:46;121.25;;;71.25;;
24567;SDS011;12731;52.182;8.716;2023-02-23T08:50:14;123.72;;;74.10;;
24567;SDS011;12731;52.182;8.716;2023-02-23T08:52:41;126.78;;;73.90;;
24567;SDS011;12731;52.182;8.716;2023-02-23T08:55:08;123.07;;;72.47;;
24567;SDS011;12731;52.182;8.716;2023-02-23T08:57:36;122.03;;;72.78;;
24567;SDS011;12731;52.182;8.716;2023-02-23T09:00:03;121.93;;;72.47;;
24567;SDS011;12731;52.182;8.716;2023-02-23T09:02:39;117.93;;;70.40;;
24567;SDS011;12731;52.182;8.716;2023-02-23T09:05:07;118.35;;;71.80;;
24567;SDS011;12731;52.182;8.716;2023-02-23T09:07:34;117.22;;;72.95;;
24567;SDS011;12731;52.182;8.716;2023-02-23T09:10:02;115.15;;;69.28;;
24567;SDS011;12731;52.182;8.716;2023-02-23T09:12:29;112.38;;;67.20;;
24567;SDS011;12731;52.182;8.716;2023-02-23T09:14:56;110.85;;;65.97;;
24567;SDS011;12731;52.182;8.716;2023-02-23T09:17:22;97.95;;;62.20;;
24567;SDS011;12731;52.182;8.716;2023-02-23T09:19:49;100.72;;;61.28;;
24567;SDS011;12731;52.182;8.716;2023-02-23T09:22:15;96.70;;;60.17;;
24567;SDS011;12731;52.182;8.716;2023-02-23T09:24:43;93.68;;;61.85;;
24567;SDS011;12731;52.182;8.716;2023-02-23T09:27:10;89.55;;;57.05;;
24567;SDS011;12731;52.182;8.716;2023-02-23T09:29:39;83.05;;;55.30;;
24567;SDS011;12731;52.182;8.716;2023-02-23T09:32:08;86.68;;;54.35;;
24567;SDS011;12731;52.182;8.716;2023-02-23T09:34:36;83.53;;;55.17;;
24567;SDS011;12731;52.182;8.716;2023-02-23T09:37:03;88.30;;;51.25;;
24567;SDS011;12731;52.182;8.716;2023-02-23T09:39:29;86.55;;;47.72;;
24567;SDS011;12731;52.182;8.716;2023-02-23T09:47:25;90.35;;;44.53;;
24567;SDS011;12731;52.182;8.716;2023-02-23T09:49:56;84.72;;;43.33;;
24567;SDS011;12731;52.182;8.716;2023-02-23T09:52:26;89.10;;;45.13;;
24567;SDS011;12731;52.182;8.716;2023-02-23T09:54:54;87.38;;;42.47;;
24567;SDS011;12731;52.182;8.716;2023-02-23T09:57:22;90.30;;;43.72;;
24567;SDS011;12731;52.182;8.716;2023-02-23T10:00:05;92.45;;;44.92;;
24567;SDS011;12731;52.182;8.716;2023-02-23T10:02:37;98.38;;;44.92;;
24567;SDS011;12731;52.182;8.716;2023-02-23T10:05:16;95.25;;;44.92;;
24567;SDS011;12731;52.182;8.716;2023-02-23T10:08:05;94.93;;;43.05;;
24567;SDS011;12731;52.182;8.716;2023-02-23T10:16:17;106.65;;;45.17;;
24567;SDS011;12731;52.182;8.716;2023-02-23T10:18:53;103.05;;;45.17;;
24567;SDS011;12731;52.182;8.716;2023-02-23T10:21:38;104.20;;;44.80;;
24567;SDS011;12731;52.182;8.716;2023-02-23T10:26:51;103.32;;;44.20;;
24567;SDS011;12731;52.182;8.716;2023-02-23T10:29:25;105.28;;;44.30;;
24567;SDS011;12731;52.182;8.716;2023-02-23T10:32:58;104.80;;;44.40;;
24567;SDS011;12731;52.182;8.716;2023-02-23T10:34:53;107.50;;;44.42;;
24567;SDS011;12731;52.182;8.716;2023-02-23T10:37:22;104.13;;;43.20;;
24567;SDS011;12731;52.182;8.716;2023-02-23T10:39:49;115.72;;;46.45;;
24567;SDS011;12731;52.182;8.716;2023-02-23T10:42:22;104.97;;;43.47;;
24567;SDS011;12731;52.182;8.716;2023-02-23T10:44:59;116.97;;;46.67;;
24567;SDS011;12731;52.182;8.716;2023-02-23T10:47:26;112.22;;;44.85;;
24567;SDS011;12731;52.182;8.716;2023-02-23T10:49:55;108.85;;;44.17;;
24567;SDS011;12731;52.182;8.716;2023-02-23T10:52:26;105.47;;;43.97;;
24567;SDS011;12731;52.182;8.716;2023-02-23T10:54:57;104.75;;;43.90;;
24567;SDS011;12731;52.182;8.716;2023-02-23T10:57:25;106.53;;;45.45;;
24567;SDS011;12731;52.182;8.716;2023-02-23T11:00:01;106.07;;;46.00;;
24567;SDS011;12731;52.182;8.716;2023-02-23T11:02:45;106.70;;;44.63;;
24567;SDS011;12731;52.182;8.716;2023-02-23T11:05:32;118.38;;;46.67;;
24567;SDS011;12731;52.182;8.716;2023-02-23T11:10:36;104.68;;;45.08;;
24567;SDS011;12731;52.182;8.716;2023-02-23T11:13:02;105.10;;;44.13;;
24567;SDS011;12731;52.182;8.716;2023-02-23T11:15:30;111.97;;;47.60;;
24567;SDS011;12731;52.182;8.716;2023-02-23T11:18:19;116.28;;;47.53;;
24567;SDS011;12731;52.182;8.716;2023-02-23T11:20:47;105.05;;;45.80;;
24567;SDS011;12731;52.182;8.716;2023-02-23T11:23:16;110.20;;;47.03;;
24567;SDS011;12731;52.182;8.716;2023-02-23T11:25:46;106.15;;;45.15;;
24567;SDS011;12731;52.182;8.716;2023-02-23T11:28:18;107.78;;;45.60;;
24567;SDS011;12731;52.182;8.716;2023-02-23T11:30:48;99.50;;;45.30;;
24567;SDS011;12731;52.182;8.716;2023-02-23T11:33:15;98.93;;;45.88;;
24567;SDS011;12731;52.182;8.716;2023-02-23T11:35:43;109.90;;;48.65;;
24567;SDS011;12731;52.182;8.716;2023-02-23T11:38:23;101.47;;;48.47;;
24567;SDS011;12731;52.182;8.716;2023-02-23T11:41:02;93.50;;;47.03;;
24567;SDS011;12731;52.182;8.716;2023-02-23T11:43:30;95.10;;;46.20;;
24567;SDS011;12731;52.182;8.716;2023-02-23T11:45:57;91.47;;;45.08;;
24567;SDS011;12731;52.182;8.716;2023-02-23T11:51:04;99.40;;;46.33;;
24567;SDS011;12731;52.182;8.716;2023-02-23T11:55:58;99.30;;;48.17;;
24567;SDS011;12731;52.182;8.716;2023-02-23T11:58:42;92.82;;;45.53;;
24567;SDS011;12731;52.182;8.716;2023-02-23T12:01:12;102.63;;;48.88;;
24567;SDS011;12731;52.182;8.716;2023-02-23T12:03:52;95.40;;;46.30;;
24567;SDS011;12731;52.182;8.716;2023-02-23T12:06:26;92.13;;;45.63;;
24567;SDS011;12731;52.182;8.716;2023-02-23T12:08:57;88.32;;;44.17;;
24567;SDS011;12731;52.182;8.716;2023-02-23T12:11:28;92.38;;;46.90;;
24567;SDS011;12731;52.182;8.716;2023-02-23T12:14:00;102.97;;;50.88;;
24567;SDS011;12731;52.182;8.716;2023-02-23T12:16:32;99.18;;;50.80;;
24567;SDS011;12731;52.182;8.716;2023-02-23T12:19:05;91.20;;;45.63;;
24567;SDS011;12731;52.182;8.716;2023-02-23T12:21:39;99.83;;;45.23;;
24567;SDS011;12731;52.182;8.716;2023-02-23T12:29:35;87.57;;;44.35;;
24567;SDS011;12731;52.182;8.716;2023-02-23T12:32:11;89.63;;;44.13;;
24567;SDS011;12731;52.182;8.716;2023-02-23T12:34:46;91.95;;;45.30;;
24567;SDS011;12731;52.182;8.716;2023-02-23T12:40:21;83.57;;;47.13;;
24567;SDS011;12731;52.182;8.716;2023-02-23T12:42:58;102.80;;;54.78;;
24567;SDS011;12731;52.182;8.716;2023-02-23T12:45:29;99.05;;;49.60;;
24567;SDS011;12731;52.182;8.716;2023-02-23T12:48:11;115.07;;;57.05;;
24567;SDS011;12731;52.182;8.716;2023-02-23T12:50:45;97.95;;;51.72;;
24567;SDS011;12731;52.182;8.716;2023-02-23T12:53:36;104.60;;;52.92;;
24567;SDS011;12731;52.182;8.716;2023-02-23T12:56:13;102.82;;;55.53;;
24567;SDS011;12731;52.182;8.716;2023-02-23T13:01:58;98.85;;;51.10;;
24567;SDS011;12731;52.182;8.716;2023-02-23T13:04:31;100.47;;;52.38;;
24567;SDS011;12731;52.182;8.716;2023-02-23T13:07:07;100.97;;;54.28;;
24567;SDS011;12731;52.182;8.716;2023-02-23T13:23:35;84.40;;;43.80;;
24567;SDS011;12731;52.182;8.716;2023-02-23T13:26:15;87.55;;;43.90;;
24567;SDS011;12731;52.182;8.716;2023-02-23T13:29:05;86.20;;;42.72;;
24567;SDS011;12731;52.182;8.716;2023-02-23T13:31:37;84.00;;;43.10;;
24567;SDS011;12731;52.182;8.716;2023-02-23T13:34:09;87.97;;;43.10;;
24567;SDS011;12731;52.182;8.716;2023-02-23T13:36:37;79.65;;;39.92;;
24567;SDS011;12731;52.182;8.716;2023-02-23T13:39:27;81.07;;;40.58;;
24567;SDS011;12731;52.182;8.716;2023-02-23T13:45:12;75.40;;;37.17;;
24567;SDS011;12731;52.182;8.716;2023-02-23T13:48:13;76.78;;;35.92;;
24567;SDS011;12731;52.182;8.716;2023-02-23T13:50:53;72.47;;;35.25;;
24567;SDS011;12731;52.182;8.716;2023-02-23T13:53:27;75.68;;;35.90;;
24567;SDS011;12731;52.182;8.716;2023-02-23T13:56:01;69.35;;;33.63;;
24567;SDS011;12731;52.182;8.716;2023-02-23T13:58:29;71.75;;;33.58;;
24567;SDS011;12731;52.182;8.716;2023-02-23T14:01:05;63.53;;;32.38;;
24567;SDS011;12731;52.182;8.716;2023-02-23T14:03:53;65.70;;;32.90;;
24567;SDS011;12731;52.182;8.716;2023-02-23T14:06:23;66.93;;;33.55;;
24567;SDS011;12731;52.182;8.716;2023-02-23T14:08:54;59.50;;;30.33;;
24567;SDS011;12731;52.182;8.716;2023-02-23T14:11:33;54.33;;;28.02;;
24567;SDS011;12731;52.182;8.716;2023-02-23T14:14:01;40.38;;;21.73;;
24567;SDS011;12731;52.182;8.716;2023-02-23T14:16:28;37.78;;;20.65;;
24567;SDS011;12731;52.182;8.716;2023-02-23T14:19:04;37.95;;;19.38;;
24567;SDS011;12731;52.182;8.716;2023-02-23T14:21:32;36.08;;;20.00;;
24567;SDS011;12731;52.182;8.716;2023-02-23T14:31:52;38.47;;;20.63;;
24567;SDS011;12731;52.182;8.716;2023-02-23T14:34:41;42.63;;;21.35;;
24567;SDS011;12731;52.182;8.716;2023-02-23T14:37:16;45.80;;;22.85;;
24567;SDS011;12731;52.182;8.716;2023-02-23T14:39:44;38.85;;;20.02;;
24567;SDS011;12731;52.182;8.716;2023-02-23T14:42:14;39.30;;;19.38;;
24567;SDS011;12731;52.182;8.716;2023-02-23T14:44:46;57.38;;;30.25;;
24567;SDS011;12731;52.182;8.716;2023-02-23T14:47:19;45.72;;;21.92;;
24567;SDS011;12731;52.182;8.716;2023-02-23T14:49:48;35.47;;;18.65;;
24567;SDS011;12731;52.182;8.716;2023-02-23T14:52:18;37.83;;;19.42;;
24567;SDS011;12731;52.182;8.716;2023-02-23T14:54:47;36.88;;;18.85;;
24567;SDS011;12731;52.182;8.716;2023-02-23T14:57:18;41.00;;;18.63;;
24567;SDS011;12731;52.182;8.716;2023-02-23T14:59:55;37.97;;;19.90;;
24567;SDS011;12731;52.182;8.716;2023-02-23T15:02:24;39.35;;;19.52;;
24567;SDS011;12731;52.182;8.716;2023-02-23T15:04:52;38.40;;;19.90;;
24567;SDS011;12731;52.182;8.716;2023-02-23T15:09:58;39.67;;;19.42;;
24567;SDS011;12731;52.182;8.716;2023-02-23T15:12:29;37.75;;;18.65;;
24567;SDS011;12731;52.182;8.716;2023-02-23T15:15:01;37.40;;;19.55;;
24567;SDS011;12731;52.182;8.716;2023-02-23T15:17:30;37.67;;;19.17;;
24567;SDS011;12731;52.182;8.716;2023-02-23T15:20:03;39.95;;;19.65;;
24567;SDS011;12731;52.182;8.716;2023-02-23T15:22:41;36.72;;;18.95;;
24567;SDS011;12731;52.182;8.716;2023-02-23T15:25:13;39.83;;;20.13;;
24567;SDS011;12731;52.182;8.716;2023-02-23T15:27:42;42.28;;;20.08;;
24567;SDS011;12731;52.182;8.716;2023-02-23T15:30:17;40.25;;;20.23;;
24567;SDS011;12731;52.182;8.716;2023-02-23T15:35:26;41.67;;;20.67;;
24567;SDS011;12731;52.182;8.716;2023-02-23T15:37:53;42.25;;;20.77;;
24567;SDS011;12731;52.182;8.716;2023-02-23T15:40:39;40.78;;;19.92;;
24567;SDS011;12731;52.182;8.716;2023-02-23T15:43:06;43.95;;;20.30;;
24567;SDS011;12731;52.182;8.716;2023-02-23T15:45:45;47.60;;;21.02;;
24567;SDS011;12731;52.182;8.716;2023-02-23T15:48:15;39.90;;;20.63;;
24567;SDS011;12731;52.182;8.716;2023-02-23T15:50:46;41.15;;;20.33;;
24567;SDS011;12731;52.182;8.716;2023-02-23T15:53:34;44.17;;;20.75;;
24567;SDS011;12731;52.182;8.716;2023-02-23T15:56:03;47.95;;;20.92;;
24567;SDS011;12731;52.182;8.716;2023-02-23T15:58:39;47.28;;;22.00;;
24567;SDS011;12731;52.182;8.716;2023-02-23T16:01:22;41.03;;;20.25;;
24567;SDS011;12731;52.182;8.716;2023-02-23T16:04:07;43.05;;;19.70;;
24567;SDS011;12731;52.182;8.716;2023-02-23T16:06:48;43.83;;;20.27;;
24567;SDS011;12731;52.182;8.716;2023-02-23T16:14:20;42.55;;;19.23;;
24567;SDS011;12731;52.182;8.716;2023-02-23T16:16:49;38.45;;;18.25;;
24567;SDS011;12731;52.182;8.716;2023-02-23T16:19:35;41.10;;;19.38;;
24567;SDS011;12731;52.182;8.716;2023-02-23T16:22:06;41.97;;;19.95;;
24567;SDS011;12731;52.182;8.716;2023-02-23T16:24:41;42.42;;;19.02;;
24567;SDS011;12731;52.182;8.716;2023-02-23T16:27:08;39.47;;;18.67;;